sensor_id;sensor_type;location;lat;lon;timestamp;P1;durP1;ratioP1;P2;durP2;ratioP2
76710;SDS011;65639;44.498;0.166;2023-04-25T00:18:29;14.57;;;9.30;;
76710;SDS011;65639;44.498;0.166;2023-04-25T00:38:55;12.13;;;9.67;;
76710;SDS011;65639;44.498;0.166;2023-04-25T00:59:24;11.13;;;9.90;;
76710;SDS011;65639;44.498;0.166;2023-04-25T01:19:51;17.57;;;10.47;;
76710;SDS011;65639;44.498;0.166;2023-04-25T01:40:21;12.67;;;11.33;;
76710;SDS011;65639;44.498;0.166;2023-04-25T02:00:50;19.60;;;13.80;;
76710;SDS011;65639;44.498;0.166;2023-04-25T02:21:18;19.57;;;13.87;;
76710;SDS011;65639;44.498;0.166;2023-04-25T02:41:48;17.00;;;12.20;;
76710;SDS011;65639;44.498;0.166;2023-04-25T03:02:16;21.37;;;11.20;;
76710;SDS011;65639;44.498;0.166;2023-04-25T03:22:45;8.93;;;7.40;;
76710;SDS011;65639;44.498;0.166;2023-04-25T03:43:14;9.33;;;8.33;;
76710;SDS011;65639;44.498;0.166;2023-04-25T04:03:43;10.63;;;8.77;;
76710;SDS011;65639;44.498;0.166;2023-04-25T04:24:11;10.77;;;8.40;;
76710;SDS011;65639;44.498;0.166;2023-04-25T04:44:39;9.40;;;8.37;;
76710;SDS011;65639;44.498;0.166;2023-04-25T05:05:09;4.83;;;4.27;;
76710;SDS011;65639;44.498;0.166;2023-04-25T05:25:37;3.53;;;2.93;;
76710;SDS011;65639;44.498;0.166;2023-04-25T05:46:06;3.87;;;2.83;;
76710;SDS011;65639;44.498;0.166;2023-04-25T06:06:36;3.73;;;2.83;;
76710;SDS011;65639;44.498;0.166;2023-04-25T06:27:06;2.77;;;2.33;;
76710;SDS011;65639;44.498;0.166;2023-04-25T06:47:32;3.30;;;3.00;;
76710;SDS011;65639;44.498;0.166;2023-04-25T07:08:00;3.37;;;2.90;;
76710;SDS011;65639;44.498;0.166;2023-04-25T07:28:30;4.23;;;3.10;;
76710;SDS011;65639;44.498;0.166;2023-04-25T07:48:57;3.80;;;3.50;;
76710;SDS011;65639;44.498;0.166;2023-04-25T08:09:28;3.80;;;3.50;;
76710;SDS011;65639;44.498;0.166;2023-04-25T08:29:58;4.70;;;3.37;;
76710;SDS011;65639;44.498;0.166;2023-04-25T08:50:27;2.87;;;2.43;;
76710;SDS011;65639;44.498;0.166;2023-04-25T09:10:57;3.43;;;2.40;;
76710;SDS011;65639;44.498;0.166;2023-04-25T09:31:27;3.43;;;2.70;;
76710;SDS011;65639;44.498;0.166;2023-04-25T09:51:56;5.17;;;2.80;;
76710;SDS011;65639;44.498;0.166;2023-04-25T10:12:29;6.03;;;3.07;;
76710;SDS011;65639;44.498;0.166;2023-04-25T10:32:58;3.70;;;2.63;;
76710;SDS011;65639;44.498;0.166;2023-04-25T10:53:24;2.73;;;2.10;;
76710;SDS011;65639;44.498;0.166;2023-04-25T11:13:52;4.83;;;2.60;;
76710;SDS011;65639;44.498;0.166;2023-04-25T11:34:20;2.33;;;2.00;;
76710;SDS011;65639;44.498;0.166;2023-04-25T11:54:49;2.17;;;1.97;;
76710;SDS011;65639;44.498;0.166;2023-04-25T12:15:23;2.30;;;2.00;;
76710;SDS011;65639;44.498;0.166;2023-04-25T12:35:47;3.03;;;1.93;;
76710;SDS011;65639;44.498;0.166;2023-04-25T12:56:19;2.50;;;1.80;;
76710;SDS011;65639;44.498;0.166;2023-04-25T13:16:50;1.77;;;1.30;;
76710;SDS011;65639;44.498;0.166;2023-04-25T13:37:17;1.60;;;1.50;;
76710;SDS011;65639;44.498;0.166;2023-04-25T13:57:44;3.33;;;1.83;;
76710;SDS011;65639;44.498;0.166;2023-04-25T14:18:09;2.57;;;2.10;;
76710;SDS011;65639;44.498;0.166;2023-04-25T14:38:36;2.97;;;2.60;;
76710;SDS011;65639;44.498;0.166;2023-04-25T14:59:06;2.77;;;2.23;;
76710;SDS011;65639;44.498;0.166;2023-04-25T15:19:32;4.83;;;2.43;;
76710;SDS011;65639;44.498;0.166;2023-04-25T15:40:02;2.73;;;2.50;;
76710;SDS011;65639;44.498;0.166;2023-04-25T16:00:34;3.30;;;2.63;;
76710;SDS011;65639;44.498;0.166;2023-04-25T16:20:58;2.40;;;2.20;;
76710;SDS011;65639;44.498;0.166;2023-04-25T16:41:27;3.87;;;3.40;;
76710;SDS011;65639;44.498;0.166;2023-04-25T17:01:53;4.03;;;2.90;;
76710;SDS011;65639;44.498;0.166;2023-04-25T17:22:21;4.93;;;2.90;;
76710;SDS011;65639;44.498;0.166;2023-04-25T17:42:48;3.23;;;2.63;;
76710;SDS011;65639;44.498;0.166;2023-04-25T18:23:44;6.30;;;4.20;;
76710;SDS011;65639;44.498;0.166;2023-04-25T18:44:10;10.00;;;6.53;;
76710;SDS011;65639;44.498;0.166;2023-04-25T19:04:38;6.90;;;5.93;;
76710;SDS011;65639;44.498;0.166;2023-04-25T19:25:07;9.60;;;7.23;;
76710;SDS011;65639;44.498;0.166;2023-04-25T19:45:35;6.73;;;5.70;;
76710;SDS011;65639;44.498;0.166;2023-04-25T20:06:04;6.63;;;4.40;;
76710;SDS011;65639;44.498;0.166;2023-04-25T20:26:33;7.07;;;5.03;;
76710;SDS011;65639;44.498;0.166;2023-04-25T20:47:02;4.90;;;3.27;;
76710;SDS011;65639;44.498;0.166;2023-04-25T21:07:30;6.53;;;5.33;;
76710;SDS011;65639;44.498;0.166;2023-04-25T21:27:57;7.40;;;6.07;;
76710;SDS011;65639;44.498;0.166;2023-04-25T21:48:26;10.00;;;8.13;;
76710;SDS011;65639;44.498;0.166;2023-04-25T22:08:54;10.87;;;8.50;;
76710;SDS011;65639;44.498;0.166;2023-04-25T22:29:22;12.63;;;8.63;;
76710;SDS011;65639;44.498;0.166;2023-04-25T22:49:49;-1.00;;;-1.00;;
76710;SDS011;65639;44.498;0.166;2023-04-25T23:10:19;11.23;;;9.73;;
76710;SDS011;65639;44.498;0.166;2023-04-25T23:30:48;12.20;;;9.47;;
76710;SDS011;65639;44.498;0.166;2023-04-25T23:51:16;12.73;;;8.40;;
